createdAt,value
2023-04-15T00:00:24.759Z,92475.00
2023-04-15T00:04:53.068Z,92483.00
2023-04-15T00:08:57.312Z,92476.00
2023-04-15T00:13:19.508Z,92495.00
2023-04-15T00:17:22.971Z,92492.00
2023-04-15T00:21:27.685Z,92499.00
2023-04-15T00:25:31.110Z,92491.00
2023-04-15T00:29:36.164Z,92489.00
2023-04-15T00:33:40.773Z,92496.00
2023-04-15T00:37:46.027Z,92498.00
2023-04-15T00:41:51.241Z,92494.00
2023-04-15T00:45:58.204Z,92498.00
2023-04-15T00:50:30.608Z,92495.00
2023-04-15T00:54:34.086Z,92491.00
2023-04-15T00:59:54.021Z,92498.00
2023-04-15T01:03:59.592Z,92497.00
2023-04-15T01:08:29.751Z,92513.00
2023-04-15T01:12:34.439Z,92516.00
2023-04-15T01:16:39.875Z,92510.00
2023-04-15T01:20:44.826Z,92519.00
2023-04-15T01:25:45.353Z,92524.00
2023-04-15T01:29:51.787Z,92528.00
2023-04-15T01:33:55.223Z,92517.00
2023-04-15T01:38:18.413Z,92532.00
2023-04-15T01:42:23.005Z,92528.00
2023-04-15T01:46:32.401Z,92529.00
2023-04-15T01:50:38.345Z,92523.00
2023-04-15T01:54:49.278Z,92526.00
2023-04-15T01:58:52.867Z,92535.00
2023-04-15T02:03:00.757Z,92523.00
2023-04-15T02:07:04.178Z,92520.00
2023-04-15T02:11:07.654Z,92519.00
2023-04-15T02:15:13.462Z,92531.00
2023-04-15T02:19:18.387Z,92523.00
2023-04-15T02:23:22.019Z,92520.00
2023-04-15T02:27:25.493Z,92531.00
2023-04-15T02:31:28.985Z,92508.00
2023-04-15T02:35:54.252Z,92518.00
2023-04-15T02:39:57.775Z,92517.00
2023-04-15T02:44:01.303Z,92517.00
2023-04-15T02:48:37.566Z,92539.00
2023-04-15T02:52:42.864Z,92531.00
2023-04-15T02:57:39.368Z,92535.00
2023-04-15T03:01:44.680Z,92523.00
2023-04-15T03:05:52.798Z,92531.00
2023-04-15T03:09:58.155Z,92532.00
2023-04-15T03:14:30.607Z,92534.00
2023-04-15T03:18:34.150Z,92534.00
2023-04-15T03:22:40.923Z,92533.00
2023-04-15T03:26:46.761Z,92532.00
2023-04-15T03:30:53.260Z,92536.00
2023-04-15T03:34:56.920Z,92542.00
2023-04-15T03:39:02.505Z,92540.00
2023-04-15T03:43:18.887Z,92536.00
2023-04-15T03:47:22.341Z,92531.00
2023-04-15T03:51:34.239Z,92531.00
2023-04-15T03:55:38.072Z,92534.00
2023-04-15T03:59:44.375Z,92534.00
2023-04-15T04:03:48.019Z,92541.00
2023-04-15T04:08:10.512Z,92549.00
2023-04-15T04:12:14.129Z,92548.00
2023-04-15T04:16:19.159Z,92560.00
2023-04-15T04:20:22.884Z,92555.00
2023-04-15T04:24:26.649Z,92568.00
2023-04-15T04:28:35.427Z,92573.00
2023-04-15T04:33:06.219Z,92580.00
2023-04-15T04:37:09.828Z,92582.00
2023-04-15T04:41:13.303Z,92583.00
2023-04-15T04:46:09.298Z,92594.00
2023-04-15T04:51:03.301Z,92598.00
2023-04-15T04:55:09.051Z,92615.00
2023-04-15T04:59:16.849Z,92585.00
2023-04-15T05:03:20.644Z,92606.00
2023-04-15T05:07:43.753Z,92617.00
2023-04-15T05:11:49.076Z,92588.00
2023-04-15T05:16:06.791Z,92597.00
2023-04-15T05:20:11.045Z,92613.00
2023-04-15T05:24:28.976Z,92611.00
2023-04-15T05:28:33.901Z,92622.00
2023-04-15T05:32:37.571Z,92618.00
2023-04-15T05:36:42.428Z,92622.00
2023-04-15T05:40:45.992Z,92619.00
2023-04-15T05:44:56.407Z,92618.00
2023-04-15T05:49:00.072Z,92645.00
2023-04-15T05:54:16.280Z,92642.00
2023-04-15T05:58:20.956Z,92639.00
2023-04-15T06:02:28.161Z,92631.00
2023-04-15T06:06:33.850Z,92646.00
2023-04-15T06:10:37.709Z,92643.00
2023-04-15T06:15:10.081Z,92652.00
2023-04-15T06:19:18.646Z,92657.00
2023-04-15T06:23:23.010Z,92661.00
2023-04-15T06:27:30.982Z,92645.00
2023-04-15T06:37:20.926Z,92628.00
2023-04-15T06:41:28.194Z,92652.00
2023-04-15T06:45:32.306Z,92680.00
2023-04-15T06:49:40.709Z,92668.00
2023-04-15T06:53:45.762Z,92682.00
2023-04-15T06:58:14.184Z,92692.00
2023-04-15T07:02:18.678Z,92695.00
2023-04-15T07:06:23.800Z,92690.00
2023-04-15T07:10:28.777Z,92690.00
2023-04-15T07:14:36.605Z,92697.00
2023-04-15T07:18:40.330Z,92700.00
2023-04-15T07:23:09.466Z,92708.00
2023-04-15T07:27:18.968Z,92696.00
2023-04-15T07:31:50.064Z,92692.00
2023-04-15T07:35:57.679Z,92705.00
2023-04-15T07:40:42.393Z,92719.00
2023-04-15T07:51:42.997Z,92727.00
2023-04-15T08:00:48.807Z,92735.00
2023-04-15T08:04:55.728Z,92736.00
2023-04-15T08:09:01.215Z,92732.00
2023-04-15T08:13:08.252Z,92753.00
2023-04-15T08:17:11.759Z,92744.00
2023-04-15T08:21:27.820Z,92768.00
2023-04-15T08:25:32.780Z,92779.00
2023-04-15T08:29:36.370Z,92777.00
2023-04-15T08:33:40.639Z,92778.00
2023-04-15T08:37:44.160Z,92783.00
2023-04-15T08:46:12.644Z,92796.00
2023-04-15T08:50:44.318Z,92795.00
2023-04-15T08:54:48.152Z,92801.00
2023-04-15T08:58:58.439Z,92772.00
2023-04-15T09:03:02.634Z,92776.00
2023-04-15T09:07:09.860Z,92794.00
2023-04-15T09:11:13.560Z,92816.00
2023-04-15T09:15:44.256Z,92808.00
2023-04-15T09:19:55.750Z,92818.00
2023-04-15T09:24:01.165Z,92816.00
2023-04-15T09:28:27.103Z,92797.00
2023-04-15T09:32:37.468Z,92821.00
2023-04-15T09:37:31.329Z,92831.00
2023-04-15T09:41:36.152Z,92820.00
2023-04-15T09:46:04.690Z,92841.00
2023-04-15T09:50:11.874Z,92829.00
2023-04-15T09:54:22.342Z,92824.00
2023-04-15T09:58:29.534Z,92856.00
2023-04-15T10:02:34.057Z,92839.00
2023-04-15T10:07:05.276Z,92854.00
2023-04-15T10:11:09.522Z,92830.00
2023-04-15T10:15:18.606Z,92847.00
2023-04-15T10:19:29.055Z,92860.00
2023-04-15T10:29:59.340Z,92872.00
2023-04-15T10:34:06.723Z,92864.00
2023-04-15T10:38:35.625Z,92865.00
2023-04-15T10:42:43.828Z,92860.00
2023-04-15T10:46:49.554Z,92883.00
2023-04-15T10:51:19.205Z,92894.00
2023-04-15T10:55:38.580Z,92882.00
2023-04-15T11:05:50.416Z,92864.00
2023-04-15T11:21:11.704Z,92904.00
2023-04-15T11:25:45.512Z,92909.00
2023-04-15T11:30:07.354Z,92896.00
2023-04-15T11:34:28.690Z,92900.00
2023-04-15T11:38:38.843Z,92907.00
2023-04-15T11:43:03.643Z,92922.00
2023-04-15T11:47:25.890Z,92942.00
2023-04-15T11:51:43.086Z,92948.00
2023-04-15T11:56:16.385Z,92937.00
2023-04-15T12:00:34.361Z,92947.00
2023-04-15T12:04:40.573Z,92950.00
2023-04-15T12:13:42.166Z,92955.00
2023-04-15T12:22:39.568Z,92963.00
2023-04-15T12:26:54.376Z,92960.00
2023-04-15T12:36:10.243Z,92982.00
2023-04-15T12:40:25.739Z,92984.00
2023-04-15T12:44:38.583Z,92979.00
2023-04-15T12:49:05.381Z,92986.00
2023-04-15T12:53:26.776Z,92993.00
2023-04-15T12:57:47.272Z,92991.00
2023-04-15T13:02:17.109Z,92996.00
2023-04-15T13:06:54.854Z,93002.00
2023-04-15T13:11:08.014Z,92993.00
2023-04-15T13:15:13.456Z,93002.00
2023-04-15T13:19:21.071Z,93009.00
2023-04-15T13:23:43.010Z,92998.00
2023-04-15T13:27:52.750Z,93011.00
2023-04-15T13:32:11.936Z,93025.00
2023-04-15T13:36:29.981Z,93021.00
2023-04-15T13:40:41.164Z,93011.00
2023-04-15T13:44:52.956Z,93004.00
2023-04-15T13:49:00.483Z,93013.00
2023-04-15T13:53:17.790Z,93030.00
2023-04-15T13:57:28.913Z,93022.00
2023-04-15T14:01:34.535Z,93029.00
2023-04-15T14:05:55.031Z,93046.00
2023-04-15T14:10:07.758Z,93045.00
2023-04-15T14:14:18.108Z,93047.00
2023-04-15T14:18:27.728Z,93052.00
2023-04-15T14:22:39.785Z,93068.00
2023-04-15T14:26:47.909Z,93050.00
2023-04-15T14:31:05.175Z,93066.00
2023-04-15T14:35:15.942Z,93060.00
2023-04-15T14:43:44.829Z,93094.00
2023-04-15T14:48:20.815Z,93096.00
2023-04-15T14:52:40.356Z,93076.00
2023-04-15T14:57:06.843Z,93075.00
2023-04-15T15:32:11.002Z,93139.00
2023-04-15T15:41:16.289Z,93123.00
2023-04-15T15:45:25.860Z,93162.00
2023-04-15T15:49:44.446Z,93138.00
2023-04-15T15:54:10.098Z,93145.00
2023-04-15T16:03:48.156Z,93159.00
2023-04-15T16:08:21.416Z,93176.00
2023-04-15T16:23:01.638Z,93163.00
2023-04-15T16:27:57.249Z,93156.00
2023-04-15T16:32:19.211Z,93166.00
2023-04-15T16:41:15.575Z,93187.00
2023-04-15T16:45:36.793Z,93186.00
2023-04-15T16:50:27.876Z,93194.00
2023-04-15T16:54:52.757Z,93229.00
2023-04-15T17:03:30.373Z,93207.00
2023-04-15T17:07:39.119Z,93231.00
2023-04-15T17:11:50.001Z,93239.00
2023-04-15T17:16:14.268Z,93251.00
2023-04-15T17:20:45.480Z,93229.00
2023-04-15T17:25:06.293Z,93239.00
2023-04-15T17:29:29.477Z,93274.00
2023-04-15T17:34:01.958Z,93247.00
2023-04-15T17:38:17.725Z,93263.00
2023-04-15T17:42:25.145Z,93279.00
2023-04-15T17:46:29.411Z,93250.00
2023-04-15T17:50:40.071Z,93270.00
2023-04-15T17:54:47.812Z,93272.00
2023-04-15T17:59:04.249Z,93268.00
2023-04-15T18:03:14.940Z,93289.00
2023-04-15T18:07:22.911Z,93295.00
2023-04-15T18:12:27.079Z,93299.00
2023-04-15T18:16:44.471Z,93331.00
2023-04-15T18:20:56.374Z,93319.00
2023-04-15T18:25:10.073Z,93333.00
2023-04-15T18:29:23.552Z,93315.00
2023-04-15T18:33:33.134Z,93331.00
2023-04-15T18:38:18.032Z,93341.00
2023-04-15T18:42:32.116Z,93351.00
2023-04-15T18:46:44.197Z,93356.00
2023-04-15T18:59:53.300Z,93386.00
2023-04-15T19:04:07.468Z,93371.00
2023-04-15T19:08:28.379Z,93381.00
2023-04-15T19:12:41.620Z,93395.00
2023-04-15T19:16:58.035Z,93389.00
2023-04-15T19:21:06.326Z,93390.00
2023-04-15T19:25:17.414Z,93418.00
2023-04-15T19:29:22.870Z,93427.00
2023-04-15T19:33:38.389Z,93400.00
2023-04-15T19:37:45.750Z,93396.00
2023-04-15T19:42:01.514Z,93434.00
2023-04-15T19:46:09.492Z,93411.00
2023-04-15T19:50:19.645Z,93441.00
2023-04-15T19:54:27.924Z,93433.00
2023-04-15T19:58:35.054Z,93422.00
2023-04-15T20:02:39.266Z,93436.00
2023-04-15T20:06:47.191Z,93419.00
2023-04-15T20:10:54.131Z,93420.00
2023-04-15T20:15:01.875Z,93431.00
2023-04-15T20:19:09.654Z,93454.00
2023-04-15T20:23:16.464Z,93430.00
2023-04-15T20:27:22.157Z,93450.00
2023-04-15T20:31:28.068Z,93457.00
2023-04-15T20:35:42.001Z,93452.00
2023-04-15T20:39:47.753Z,93452.00
2023-04-15T20:43:51.534Z,93463.00
2023-04-15T20:47:59.367Z,93453.00
2023-04-15T20:52:08.638Z,93457.00
2023-04-15T20:56:19.108Z,93469.00
2023-04-15T21:00:24.467Z,93461.00
2023-04-15T21:04:28.761Z,93476.00
2023-04-15T21:08:32.370Z,93463.00
2023-04-15T21:12:43.639Z,93481.00
2023-04-15T21:16:47.671Z,93467.00
2023-04-15T21:21:02.294Z,93487.00
2023-04-15T21:25:08.488Z,93498.00
2023-04-15T21:29:15.859Z,93492.00
2023-04-15T21:33:20.630Z,93516.00
2023-04-15T21:37:25.482Z,93520.00
2023-04-15T21:41:32.306Z,93515.00
2023-04-15T21:46:21.253Z,93504.00
2023-04-15T21:50:19.357Z,93516.00
2023-04-15T21:54:24.369Z,93516.00
2023-04-15T21:58:30.040Z,93522.00
2023-04-15T22:02:37.878Z,93513.00
2023-04-15T22:06:48.059Z,93512.00
2023-04-15T22:10:52.565Z,93546.00
2023-04-15T22:14:59.037Z,93519.00
2023-04-15T22:19:11.779Z,93546.00
2023-04-15T22:23:20.811Z,93557.00
2023-04-15T22:27:25.468Z,93569.00
2023-04-15T22:31:31.917Z,93571.00
2023-04-15T22:35:39.716Z,93571.00
